sensor_id;sensor_type;location;lat;lon;timestamp;temperature;humidity
16846;DHT22;8539;53.188;8.696;2024-03-08T00:00:13;1.20;99.90
16846;DHT22;8539;53.188;8.696;2024-03-08T00:02:46;1.20;99.90
16846;DHT22;8539;53.188;8.696;2024-03-08T00:05:14;1.20;99.90
16846;DHT22;8539;53.188;8.696;2024-03-08T00:07:42;1.20;99.90
16846;DHT22;8539;53.188;8.696;2024-03-08T00:10:11;1.20;99.90
16846;DHT22;8539;53.188;8.696;2024-03-08T00:12:45;1.10;99.90
16846;DHT22;8539;53.188;8.696;2024-03-08T00:15:15;1.10;99.90
16846;DHT22;8539;53.188;8.696;2024-03-08T00:17:45;1.10;99.90
16846;DHT22;8539;53.188;8.696;2024-03-08T00:20:13;1.10;99.90
16846;DHT22;8539;53.188;8.696;2024-03-08T00:22:41;1.00;99.90
16846;DHT22;8539;53.188;8.696;2024-03-08T00:25:09;1.00;99.90
16846;DHT22;8539;53.188;8.696;2024-03-08T00:27:37;1.00;99.90
16846;DHT22;8539;53.188;8.696;2024-03-08T00:30:06;1.00;99.90
16846;DHT22;8539;53.188;8.696;2024-03-08T00:32:34;0.90;99.90
16846;DHT22;8539;53.188;8.696;2024-03-08T00:35:01;0.90;99.90
16846;DHT22;8539;53.188;8.696;2024-03-08T00:37:28;1.00;99.90
16846;DHT22;8539;53.188;8.696;2024-03-08T00:39:55;0.90;99.90
16846;DHT22;8539;53.188;8.696;2024-03-08T00:42:22;0.90;99.90
16846;DHT22;8539;53.188;8.696;2024-03-08T00:44:51;0.90;99.90
16846;DHT22;8539;53.188;8.696;2024-03-08T00:47:19;0.80;99.90
16846;DHT22;8539;53.188;8.696;2024-03-08T00:49:46;0.80;99.90
16846;DHT22;8539;53.188;8.696;2024-03-08T00:52:14;0.70;99.90
16846;DHT22;8539;53.188;8.696;2024-03-08T00:54:41;0.70;99.90
16846;DHT22;8539;53.188;8.696;2024-03-08T00:57:11;0.70;99.90
16846;DHT22;8539;53.188;8.696;2024-03-08T00:59:39;0.70;99.90
16846;DHT22;8539;53.188;8.696;2024-03-08T01:02:06;0.70;99.90
16846;DHT22;8539;53.188;8.696;2024-03-08T01:04:33;0.60;99.90
16846;DHT22;8539;53.188;8.696;2024-03-08T01:07:00;0.60;99.90
16846;DHT22;8539;53.188;8.696;2024-03-08T01:09:28;0.60;99.90
16846;DHT22;8539;53.188;8.696;2024-03-08T01:11:55;0.60;99.90
16846;DHT22;8539;53.188;8.696;2024-03-08T01:14:24;0.60;99.90
16846;DHT22;8539;53.188;8.696;2024-03-08T01:16:53;0.50;99.90
16846;DHT22;8539;53.188;8.696;2024-03-08T01:19:22;0.50;99.90
16846;DHT22;8539;53.188;8.696;2024-03-08T01:21:51;0.50;99.90
16846;DHT22;8539;53.188;8.696;2024-03-08T01:24:19;0.50;99.90
16846;DHT22;8539;53.188;8.696;2024-03-08T01:26:46;0.50;99.90
16846;DHT22;8539;53.188;8.696;2024-03-08T01:29:14;0.50;99.90
16846;DHT22;8539;53.188;8.696;2024-03-08T01:31:41;0.50;99.90
16846;DHT22;8539;53.188;8.696;2024-03-08T01:34:08;0.40;99.90
16846;DHT22;8539;53.188;8.696;2024-03-08T01:36:36;0.40;99.90
16846;DHT22;8539;53.188;8.696;2024-03-08T01:39:04;0.40;99.90
16846;DHT22;8539;53.188;8.696;2024-03-08T01:41:35;0.40;99.90
16846;DHT22;8539;53.188;8.696;2024-03-08T01:44:03;0.40;99.90
16846;DHT22;8539;53.188;8.696;2024-03-08T01:46:31;0.40;99.90
16846;DHT22;8539;53.188;8.696;2024-03-08T01:48:59;0.40;99.90
16846;DHT22;8539;53.188;8.696;2024-03-08T01:51:28;0.40;99.90
16846;DHT22;8539;53.188;8.696;2024-03-08T01:53:57;0.40;99.90
16846;DHT22;8539;53.188;8.696;2024-03-08T01:56:28;0.40;99.90
16846;DHT22;8539;53.188;8.696;2024-03-08T01:58:55;0.40;99.90
16846;DHT22;8539;53.188;8.696;2024-03-08T02:01:22;0.40;99.90
16846;DHT22;8539;53.188;8.696;2024-03-08T02:03:49;0.30;99.90
16846;DHT22;8539;53.188;8.696;2024-03-08T02:06:17;0.30;99.90
16846;DHT22;8539;53.188;8.696;2024-03-08T02:08:45;0.30;99.90
16846;DHT22;8539;53.188;8.696;2024-03-08T02:11:14;0.30;99.90
16846;DHT22;8539;53.188;8.696;2024-03-08T02:13:41;0.30;99.90
16846;DHT22;8539;53.188;8.696;2024-03-08T02:16:09;0.30;99.90
16846;DHT22;8539;53.188;8.696;2024-03-08T02:18:36;0.30;99.90
16846;DHT22;8539;53.188;8.696;2024-03-08T02:21:07;0.40;99.90
16846;DHT22;8539;53.188;8.696;2024-03-08T02:23:36;0.30;99.90
16846;DHT22;8539;53.188;8.696;2024-03-08T02:26:04;0.30;99.90
16846;DHT22;8539;53.188;8.696;2024-03-08T02:28:31;0.30;99.90
16846;DHT22;8539;53.188;8.696;2024-03-08T02:30:59;0.30;99.90
16846;DHT22;8539;53.188;8.696;2024-03-08T02:33:27;0.30;99.90
16846;DHT22;8539;53.188;8.696;2024-03-08T02:35:55;0.30;99.90
16846;DHT22;8539;53.188;8.696;2024-03-08T02:38:23;0.20;99.90
16846;DHT22;8539;53.188;8.696;2024-03-08T02:40:53;0.30;99.90
16846;DHT22;8539;53.188;8.696;2024-03-08T02:43:21;0.20;99.90
16846;DHT22;8539;53.188;8.696;2024-03-08T02:45:52;0.20;99.90
16846;DHT22;8539;53.188;8.696;2024-03-08T02:48:21;0.20;99.90
16846;DHT22;8539;53.188;8.696;2024-03-08T02:50:49;0.20;99.90
16846;DHT22;8539;53.188;8.696;2024-03-08T02:53:18;0.20;99.90
16846;DHT22;8539;53.188;8.696;2024-03-08T02:55:46;0.10;99.90
16846;DHT22;8539;53.188;8.696;2024-03-08T02:58:13;0.10;99.90
16846;DHT22;8539;53.188;8.696;2024-03-08T03:00:41;0.10;99.90
16846;DHT22;8539;53.188;8.696;2024-03-08T03:03:12;0.30;99.90
16846;DHT22;8539;53.188;8.696;2024-03-08T03:05:39;0.10;99.90
16846;DHT22;8539;53.188;8.696;2024-03-08T03:08:13;0.30;99.90
16846;DHT22;8539;53.188;8.696;2024-03-08T03:10:42;0.00;99.90
16846;DHT22;8539;53.188;8.696;2024-03-08T03:13:09;0.10;99.90
16846;DHT22;8539;53.188;8.696;2024-03-08T03:15:36;0.00;99.90
16846;DHT22;8539;53.188;8.696;2024-03-08T03:18:04;0.00;99.90
16846;DHT22;8539;53.188;8.696;2024-03-08T03:20:35;0.00;99.90
16846;DHT22;8539;53.188;8.696;2024-03-08T03:23:11;0.00;99.90
16846;DHT22;8539;53.188;8.696;2024-03-08T03:25:42;0.00;99.90
16846;DHT22;8539;53.188;8.696;2024-03-08T03:28:10;0.00;99.90
16846;DHT22;8539;53.188;8.696;2024-03-08T03:30:41;0.00;99.90
16846;DHT22;8539;53.188;8.696;2024-03-08T03:33:08;0.00;99.90
16846;DHT22;8539;53.188;8.696;2024-03-08T03:35:36;0.00;99.90
16846;DHT22;8539;53.188;8.696;2024-03-08T03:38:05;0.00;99.90
16846;DHT22;8539;53.188;8.696;2024-03-08T03:40:36;-0.10;99.90
16846;DHT22;8539;53.188;8.696;2024-03-08T03:43:04;-0.10;99.90
16846;DHT22;8539;53.188;8.696;2024-03-08T03:45:31;-0.10;99.90
16846;DHT22;8539;53.188;8.696;2024-03-08T03:48:03;-0.10;99.90
16846;DHT22;8539;53.188;8.696;2024-03-08T03:50:30;-0.10;99.90
16846;DHT22;8539;53.188;8.696;2024-03-08T03:52:57;-0.10;99.90
16846;DHT22;8539;53.188;8.696;2024-03-08T03:55:24;-0.10;99.90
16846;DHT22;8539;53.188;8.696;2024-03-08T03:57:52;-0.10;99.90
16846;DHT22;8539;53.188;8.696;2024-03-08T04:00:19;-0.10;99.90
16846;DHT22;8539;53.188;8.696;2024-03-08T04:02:47;-0.20;99.90
16846;DHT22;8539;53.188;8.696;2024-03-08T04:05:14;-0.20;99.90
16846;DHT22;8539;53.188;8.696;2024-03-08T04:07:41;-0.20;99.90
16846;DHT22;8539;53.188;8.696;2024-03-08T04:10:09;-0.20;99.90
16846;DHT22;8539;53.188;8.696;2024-03-08T04:12:36;-0.20;99.90
16846;DHT22;8539;53.188;8.696;2024-03-08T04:15:04;-0.20;99.90
16846;DHT22;8539;53.188;8.696;2024-03-08T04:17:34;-0.20;99.90
16846;DHT22;8539;53.188;8.696;2024-03-08T04:20:05;-0.20;99.90
16846;DHT22;8539;53.188;8.696;2024-03-08T04:22:37;-0.20;99.90
16846;DHT22;8539;53.188;8.696;2024-03-08T04:25:06;-0.30;99.90
16846;DHT22;8539;53.188;8.696;2024-03-08T04:27:33;-0.30;99.90
16846;DHT22;8539;53.188;8.696;2024-03-08T04:30:02;-0.30;99.90
16846;DHT22;8539;53.188;8.696;2024-03-08T04:32:30;-0.30;99.90
16846;DHT22;8539;53.188;8.696;2024-03-08T04:35:01;-0.30;99.90
16846;DHT22;8539;53.188;8.696;2024-03-08T04:37:31;-0.30;99.90
16846;DHT22;8539;53.188;8.696;2024-03-08T04:39:59;-0.30;99.90
16846;DHT22;8539;53.188;8.696;2024-03-08T04:42:28;-0.30;99.90
16846;DHT22;8539;53.188;8.696;2024-03-08T04:44:57;-0.30;99.90
16846;DHT22;8539;53.188;8.696;2024-03-08T04:47:25;-0.30;99.90
16846;DHT22;8539;53.188;8.696;2024-03-08T04:49:52;-0.30;99.90
16846;DHT22;8539;53.188;8.696;2024-03-08T04:52:20;-0.30;99.90
16846;DHT22;8539;53.188;8.696;2024-03-08T04:54:49;-0.30;99.90
16846;DHT22;8539;53.188;8.696;2024-03-08T04:57:16;-0.30;99.90
16846;DHT22;8539;53.188;8.696;2024-03-08T04:59:46;-0.30;99.90
16846;DHT22;8539;53.188;8.696;2024-03-08T05:02:13;-0.40;99.90
16846;DHT22;8539;53.188;8.696;2024-03-08T05:04:40;-0.40;99.90
16846;DHT22;8539;53.188;8.696;2024-03-08T05:07:09;-0.30;99.90
16846;DHT22;8539;53.188;8.696;2024-03-08T05:09:36;-0.40;99.90
16846;DHT22;8539;53.188;8.696;2024-03-08T05:12:05;-0.40;99.90
16846;DHT22;8539;53.188;8.696;2024-03-08T05:14:32;-0.40;99.90
16846;DHT22;8539;53.188;8.696;2024-03-08T05:16:59;-0.40;99.90
16846;DHT22;8539;53.188;8.696;2024-03-08T05:19:28;-0.40;99.90
16846;DHT22;8539;53.188;8.696;2024-03-08T05:22:01;-0.40;99.90
16846;DHT22;8539;53.188;8.696;2024-03-08T05:24:28;-0.40;99.90
16846;DHT22;8539;53.188;8.696;2024-03-08T05:26:57;-0.40;99.90
16846;DHT22;8539;53.188;8.696;2024-03-08T05:29:24;-0.30;99.90
16846;DHT22;8539;53.188;8.696;2024-03-08T05:31:52;-0.50;99.90
16846;DHT22;8539;53.188;8.696;2024-03-08T05:34:20;-0.50;99.90
16846;DHT22;8539;53.188;8.696;2024-03-08T05:36:49;-0.50;99.90
16846;DHT22;8539;53.188;8.696;2024-03-08T05:39:20;-0.50;99.90
16846;DHT22;8539;53.188;8.696;2024-03-08T05:41:48;-0.50;99.90
16846;DHT22;8539;53.188;8.696;2024-03-08T05:44:15;-0.50;99.90
16846;DHT22;8539;53.188;8.696;2024-03-08T05:46:48;-0.50;99.90
16846;DHT22;8539;53.188;8.696;2024-03-08T05:49:15;-0.50;99.90
16846;DHT22;8539;53.188;8.696;2024-03-08T05:51:42;-0.50;99.90
16846;DHT22;8539;53.188;8.696;2024-03-08T05:54:11;-0.50;99.90
16846;DHT22;8539;53.188;8.696;2024-03-08T05:56:42;-0.60;99.90
16846;DHT22;8539;53.188;8.696;2024-03-08T05:59:11;-0.60;99.90
16846;DHT22;8539;53.188;8.696;2024-03-08T06:01:38;-0.60;99.90
16846;DHT22;8539;53.188;8.696;2024-03-08T06:04:08;-0.60;99.90
16846;DHT22;8539;53.188;8.696;2024-03-08T06:06:35;-0.60;99.90
16846;DHT22;8539;53.188;8.696;2024-03-08T06:09:04;-0.50;99.90
16846;DHT22;8539;53.188;8.696;2024-03-08T06:11:52;-0.50;99.90
16846;DHT22;8539;53.188;8.696;2024-03-08T06:14:21;-0.60;99.90
16846;DHT22;8539;53.188;8.696;2024-03-08T06:16:48;-0.50;99.90
16846;DHT22;8539;53.188;8.696;2024-03-08T06:19:17;-0.50;99.90
16846;DHT22;8539;53.188;8.696;2024-03-08T06:21:44;-0.50;99.90
16846;DHT22;8539;53.188;8.696;2024-03-08T06:24:12;-0.50;99.90
16846;DHT22;8539;53.188;8.696;2024-03-08T06:26:42;-0.50;99.90
16846;DHT22;8539;53.188;8.696;2024-03-08T06:29:09;-0.40;99.90
16846;DHT22;8539;53.188;8.696;2024-03-08T06:31:37;-0.40;99.90
16846;DHT22;8539;53.188;8.696;2024-03-08T06:34:07;-0.40;99.90
16846;DHT22;8539;53.188;8.696;2024-03-08T06:36:35;-0.20;99.90
16846;DHT22;8539;53.188;8.696;2024-03-08T06:39:05;-0.30;99.90
16846;DHT22;8539;53.188;8.696;2024-03-08T06:41:37;0.00;99.90
16846;DHT22;8539;53.188;8.696;2024-03-08T06:44:04;-0.20;99.90
16846;DHT22;8539;53.188;8.696;2024-03-08T06:46:31;-0.20;99.90
16846;DHT22;8539;53.188;8.696;2024-03-08T06:48:59;-0.10;99.90
16846;DHT22;8539;53.188;8.696;2024-03-08T06:51:26;-0.10;99.90
16846;DHT22;8539;53.188;8.696;2024-03-08T06:53:53;-0.10;99.90
16846;DHT22;8539;53.188;8.696;2024-03-08T06:56:20;0.00;99.90
16846;DHT22;8539;53.188;8.696;2024-03-08T06:58:47;0.00;99.90
16846;DHT22;8539;53.188;8.696;2024-03-08T07:01:15;0.10;99.90
16846;DHT22;8539;53.188;8.696;2024-03-08T07:03:42;0.10;99.90
16846;DHT22;8539;53.188;8.696;2024-03-08T07:06:11;0.10;99.90
16846;DHT22;8539;53.188;8.696;2024-03-08T07:08:38;0.20;99.90
16846;DHT22;8539;53.188;8.696;2024-03-08T07:11:06;0.20;99.90
16846;DHT22;8539;53.188;8.696;2024-03-08T07:13:33;0.30;99.90
16846;DHT22;8539;53.188;8.696;2024-03-08T07:16:00;0.40;99.90
16846;DHT22;8539;53.188;8.696;2024-03-08T07:18:28;0.40;99.90
16846;DHT22;8539;53.188;8.696;2024-03-08T07:20:57;0.50;99.90
16846;DHT22;8539;53.188;8.696;2024-03-08T07:23:24;0.60;99.90
16846;DHT22;8539;53.188;8.696;2024-03-08T07:26:10;0.80;99.90
16846;DHT22;8539;53.188;8.696;2024-03-08T07:28:37;1.10;99.90
16846;DHT22;8539;53.188;8.696;2024-03-08T07:31:04;1.50;99.90
16846;DHT22;8539;53.188;8.696;2024-03-08T07:33:43;1.90;99.90
16846;DHT22;8539;53.188;8.696;2024-03-08T07:36:11;2.20;99.90
16846;DHT22;8539;53.188;8.696;2024-03-08T07:38:38;2.40;99.90
16846;DHT22;8539;53.188;8.696;2024-03-08T07:41:06;2.70;99.90
16846;DHT22;8539;53.188;8.696;2024-03-08T07:43:33;2.80;99.90
16846;DHT22;8539;53.188;8.696;2024-03-08T07:46:00;2.90;99.90
16846;DHT22;8539;53.188;8.696;2024-03-08T07:48:27;3.10;99.90
16846;DHT22;8539;53.188;8.696;2024-03-08T07:50:55;3.30;99.90
16846;DHT22;8539;53.188;8.696;2024-03-08T07:53:22;3.40;99.90
16846;DHT22;8539;53.188;8.696;2024-03-08T07:55:51;3.30;99.90
16846;DHT22;8539;53.188;8.696;2024-03-08T07:58:19;3.00;99.90
16846;DHT22;8539;53.188;8.696;2024-03-08T08:00:48;2.70;99.90
16846;DHT22;8539;53.188;8.696;2024-03-08T08:03:16;2.50;99.90
16846;DHT22;8539;53.188;8.696;2024-03-08T08:05:47;2.40;99.90
16846;DHT22;8539;53.188;8.696;2024-03-08T08:08:16;2.30;99.90
16846;DHT22;8539;53.188;8.696;2024-03-08T08:10:43;2.30;99.90
16846;DHT22;8539;53.188;8.696;2024-03-08T08:13:10;2.20;99.90
16846;DHT22;8539;53.188;8.696;2024-03-08T08:15:38;2.30;99.90
16846;DHT22;8539;53.188;8.696;2024-03-08T08:18:05;2.50;99.90
16846;DHT22;8539;53.188;8.696;2024-03-08T08:20:34;2.50;99.90
16846;DHT22;8539;53.188;8.696;2024-03-08T08:23:02;2.50;99.90
16846;DHT22;8539;53.188;8.696;2024-03-08T08:25:30;2.50;99.90
16846;DHT22;8539;53.188;8.696;2024-03-08T08:27:57;2.40;99.90
16846;DHT22;8539;53.188;8.696;2024-03-08T08:30:24;2.50;99.90
16846;DHT22;8539;53.188;8.696;2024-03-08T08:32:51;2.60;99.90
16846;DHT22;8539;53.188;8.696;2024-03-08T08:35:18;2.70;99.90
16846;DHT22;8539;53.188;8.696;2024-03-08T08:37:46;2.80;99.90
16846;DHT22;8539;53.188;8.696;2024-03-08T08:40:14;3.10;99.90
16846;DHT22;8539;53.188;8.696;2024-03-08T08:42:42;3.30;99.90
16846;DHT22;8539;53.188;8.696;2024-03-08T08:45:11;3.40;99.90
16846;DHT22;8539;53.188;8.696;2024-03-08T08:47:44;3.60;99.90
16846;DHT22;8539;53.188;8.696;2024-03-08T08:50:12;3.90;99.90
16846;DHT22;8539;53.188;8.696;2024-03-08T08:52:58;4.00;99.90
16846;DHT22;8539;53.188;8.696;2024-03-08T08:55:26;4.20;99.90
16846;DHT22;8539;53.188;8.696;2024-03-08T08:57:54;4.30;99.90
16846;DHT22;8539;53.188;8.696;2024-03-08T09:00:21;4.50;99.90
16846;DHT22;8539;53.188;8.696;2024-03-08T09:02:51;4.60;99.90
16846;DHT22;8539;53.188;8.696;2024-03-08T09:05:18;4.70;99.90
16846;DHT22;8539;53.188;8.696;2024-03-08T09:07:45;4.80;99.90
16846;DHT22;8539;53.188;8.696;2024-03-08T09:10:13;4.80;99.90
16846;DHT22;8539;53.188;8.696;2024-03-08T09:12:44;5.00;99.90
16846;DHT22;8539;53.188;8.696;2024-03-08T09:15:11;4.80;99.90
16846;DHT22;8539;53.188;8.696;2024-03-08T09:17:39;4.80;99.90
16846;DHT22;8539;53.188;8.696;2024-03-08T09:20:08;4.80;99.90
16846;DHT22;8539;53.188;8.696;2024-03-08T09:22:36;4.90;99.90
16846;DHT22;8539;53.188;8.696;2024-03-08T09:25:04;5.20;99.90
16846;DHT22;8539;53.188;8.696;2024-03-08T09:27:33;5.40;99.90
16846;DHT22;8539;53.188;8.696;2024-03-08T09:30:05;5.60;99.90
16846;DHT22;8539;53.188;8.696;2024-03-08T09:32:34;5.40;99.90
16846;DHT22;8539;53.188;8.696;2024-03-08T09:35:02;5.50;99.90
16846;DHT22;8539;53.188;8.696;2024-03-08T09:37:29;5.70;99.90
16846;DHT22;8539;53.188;8.696;2024-03-08T09:39:57;5.80;99.90
16846;DHT22;8539;53.188;8.696;2024-03-08T09:42:26;5.70;99.90
16846;DHT22;8539;53.188;8.696;2024-03-08T09:44:53;5.80;99.90
16846;DHT22;8539;53.188;8.696;2024-03-08T09:47:22;5.90;99.90
16846;DHT22;8539;53.188;8.696;2024-03-08T09:49:50;6.10;99.90
16846;DHT22;8539;53.188;8.696;2024-03-08T09:52:18;6.30;99.90
16846;DHT22;8539;53.188;8.696;2024-03-08T09:54:45;6.30;99.90
16846;DHT22;8539;53.188;8.696;2024-03-08T09:57:13;6.30;99.90
16846;DHT22;8539;53.188;8.696;2024-03-08T09:59:40;6.40;99.90
16846;DHT22;8539;53.188;8.696;2024-03-08T10:02:13;6.40;99.90
16846;DHT22;8539;53.188;8.696;2024-03-08T10:04:42;6.50;99.90
16846;DHT22;8539;53.188;8.696;2024-03-08T10:07:09;6.80;99.90
16846;DHT22;8539;53.188;8.696;2024-03-08T10:09:38;7.10;99.90
16846;DHT22;8539;53.188;8.696;2024-03-08T10:12:06;7.10;99.90
16846;DHT22;8539;53.188;8.696;2024-03-08T10:14:33;7.10;99.90
16846;DHT22;8539;53.188;8.696;2024-03-08T10:17:00;7.40;99.90
16846;DHT22;8539;53.188;8.696;2024-03-08T10:19:28;7.60;99.90
16846;DHT22;8539;53.188;8.696;2024-03-08T10:21:58;7.50;99.90
16846;DHT22;8539;53.188;8.696;2024-03-08T10:24:26;7.50;99.90
16846;DHT22;8539;53.188;8.696;2024-03-08T10:26:58;7.60;99.90
16846;DHT22;8539;53.188;8.696;2024-03-08T10:29:27;7.60;99.90
16846;DHT22;8539;53.188;8.696;2024-03-08T10:31:55;7.50;99.90
16846;DHT22;8539;53.188;8.696;2024-03-08T10:34:23;7.60;99.90
16846;DHT22;8539;53.188;8.696;2024-03-08T10:36:51;7.40;99.90
16846;DHT22;8539;53.188;8.696;2024-03-08T10:39:23;7.30;99.90
16846;DHT22;8539;53.188;8.696;2024-03-08T10:41:59;7.50;99.90
16846;DHT22;8539;53.188;8.696;2024-03-08T10:47:02;7.70;99.90
16846;DHT22;8539;53.188;8.696;2024-03-08T10:49:51;7.70;99.90
16846;DHT22;8539;53.188;8.696;2024-03-08T10:52:21;7.50;99.90
16846;DHT22;8539;53.188;8.696;2024-03-08T10:54:49;7.50;99.90
16846;DHT22;8539;53.188;8.696;2024-03-08T10:57:22;7.40;99.90
16846;DHT22;8539;53.188;8.696;2024-03-08T10:59:51;7.40;99.90
16846;DHT22;8539;53.188;8.696;2024-03-08T11:02:20;7.50;99.90
16846;DHT22;8539;53.188;8.696;2024-03-08T11:04:49;7.50;99.90
16846;DHT22;8539;53.188;8.696;2024-03-08T11:07:17;7.50;99.90
16846;DHT22;8539;53.188;8.696;2024-03-08T11:09:49;7.60;99.90
16846;DHT22;8539;53.188;8.696;2024-03-08T11:12:22;7.60;99.90
16846;DHT22;8539;53.188;8.696;2024-03-08T11:14:53;7.60;99.90
16846;DHT22;8539;53.188;8.696;2024-03-08T11:17:25;7.80;99.90
16846;DHT22;8539;53.188;8.696;2024-03-08T11:19:55;7.90;99.90
16846;DHT22;8539;53.188;8.696;2024-03-08T11:22:31;7.90;99.90
16846;DHT22;8539;53.188;8.696;2024-03-08T11:25:08;7.80;99.90
16846;DHT22;8539;53.188;8.696;2024-03-08T11:27:39;7.80;99.90
16846;DHT22;8539;53.188;8.696;2024-03-08T11:30:22;7.80;99.90
16846;DHT22;8539;53.188;8.696;2024-03-08T11:32:51;8.00;99.90
16846;DHT22;8539;53.188;8.696;2024-03-08T11:35:21;7.90;99.90
16846;DHT22;8539;53.188;8.696;2024-03-08T11:37:50;7.90;99.90
16846;DHT22;8539;53.188;8.696;2024-03-08T11:40:18;7.90;99.90
16846;DHT22;8539;53.188;8.696;2024-03-08T11:42:48;8.00;99.90
16846;DHT22;8539;53.188;8.696;2024-03-08T11:45:16;8.20;99.90
16846;DHT22;8539;53.188;8.696;2024-03-08T11:47:45;8.20;99.90
16846;DHT22;8539;53.188;8.696;2024-03-08T11:50:17;8.30;99.90
16846;DHT22;8539;53.188;8.696;2024-03-08T11:52:46;8.50;99.90
16846;DHT22;8539;53.188;8.696;2024-03-08T11:55:14;8.50;99.90
16846;DHT22;8539;53.188;8.696;2024-03-08T11:57:41;8.50;99.90
16846;DHT22;8539;53.188;8.696;2024-03-08T12:00:18;8.50;99.90
16846;DHT22;8539;53.188;8.696;2024-03-08T12:03:08;8.40;99.90
16846;DHT22;8539;53.188;8.696;2024-03-08T12:05:37;8.20;99.90
16846;DHT22;8539;53.188;8.696;2024-03-08T12:08:05;8.30;99.90
16846;DHT22;8539;53.188;8.696;2024-03-08T12:10:34;8.30;99.90
16846;DHT22;8539;53.188;8.696;2024-03-08T12:13:02;8.30;99.90
16846;DHT22;8539;53.188;8.696;2024-03-08T12:15:39;8.40;99.90
16846;DHT22;8539;53.188;8.696;2024-03-08T12:18:06;8.40;99.90
16846;DHT22;8539;53.188;8.696;2024-03-08T12:20:34;8.50;99.90
16846;DHT22;8539;53.188;8.696;2024-03-08T12:23:02;8.60;99.90
16846;DHT22;8539;53.188;8.696;2024-03-08T12:25:33;8.60;99.90
16846;DHT22;8539;53.188;8.696;2024-03-08T12:28:13;8.60;99.90
16846;DHT22;8539;53.188;8.696;2024-03-08T12:30:52;8.60;99.90
16846;DHT22;8539;53.188;8.696;2024-03-08T12:33:21;8.50;99.90
16846;DHT22;8539;53.188;8.696;2024-03-08T12:35:53;8.50;99.90
16846;DHT22;8539;53.188;8.696;2024-03-08T12:38:22;8.50;99.90
16846;DHT22;8539;53.188;8.696;2024-03-08T12:41:00;8.40;99.90
16846;DHT22;8539;53.188;8.696;2024-03-08T12:43:29;8.50;99.90
16846;DHT22;8539;53.188;8.696;2024-03-08T12:45:58;8.50;99.90
16846;DHT22;8539;53.188;8.696;2024-03-08T12:48:26;8.50;99.90
16846;DHT22;8539;53.188;8.696;2024-03-08T12:50:53;8.50;99.90
16846;DHT22;8539;53.188;8.696;2024-03-08T12:53:20;8.60;99.90
16846;DHT22;8539;53.188;8.696;2024-03-08T12:55:50;8.60;99.90
16846;DHT22;8539;53.188;8.696;2024-03-08T12:58:18;8.70;99.90
16846;DHT22;8539;53.188;8.696;2024-03-08T13:00:47;8.80;99.90
16846;DHT22;8539;53.188;8.696;2024-03-08T13:03:19;9.00;99.90
16846;DHT22;8539;53.188;8.696;2024-03-08T13:05:47;9.10;99.90
16846;DHT22;8539;53.188;8.696;2024-03-08T13:08:15;9.30;99.90
16846;DHT22;8539;53.188;8.696;2024-03-08T13:10:43;9.40;99.90
16846;DHT22;8539;53.188;8.696;2024-03-08T13:13:11;9.30;99.90
16846;DHT22;8539;53.188;8.696;2024-03-08T13:15:43;9.30;99.90
16846;DHT22;8539;53.188;8.696;2024-03-08T13:18:10;9.40;99.90
16846;DHT22;8539;53.188;8.696;2024-03-08T13:20:38;9.40;99.90
16846;DHT22;8539;53.188;8.696;2024-03-08T13:23:14;9.30;99.90
16846;DHT22;8539;53.188;8.696;2024-03-08T13:25:41;9.30;99.90
16846;DHT22;8539;53.188;8.696;2024-03-08T13:28:08;9.40;99.90
16846;DHT22;8539;53.188;8.696;2024-03-08T13:30:36;9.60;99.90
16846;DHT22;8539;53.188;8.696;2024-03-08T13:33:03;9.70;99.90
16846;DHT22;8539;53.188;8.696;2024-03-08T13:35:32;9.70;99.90
16846;DHT22;8539;53.188;8.696;2024-03-08T13:38:00;9.80;99.90
16846;DHT22;8539;53.188;8.696;2024-03-08T13:40:30;9.80;99.90
16846;DHT22;8539;53.188;8.696;2024-03-08T13:42:57;9.70;99.90
16846;DHT22;8539;53.188;8.696;2024-03-08T13:45:28;9.80;99.90
16846;DHT22;8539;53.188;8.696;2024-03-08T13:47:55;9.90;99.90
16846;DHT22;8539;53.188;8.696;2024-03-08T13:50:23;9.90;99.90
16846;DHT22;8539;53.188;8.696;2024-03-08T13:52:51;9.80;99.90
16846;DHT22;8539;53.188;8.696;2024-03-08T13:55:21;9.60;99.90
16846;DHT22;8539;53.188;8.696;2024-03-08T13:57:55;9.60;99.90
16846;DHT22;8539;53.188;8.696;2024-03-08T14:00:24;9.60;99.90
16846;DHT22;8539;53.188;8.696;2024-03-08T14:02:54;9.70;99.90
16846;DHT22;8539;53.188;8.696;2024-03-08T14:05:21;9.50;99.90
16846;DHT22;8539;53.188;8.696;2024-03-08T14:07:49;9.50;99.90
16846;DHT22;8539;53.188;8.696;2024-03-08T14:10:17;9.50;99.90
16846;DHT22;8539;53.188;8.696;2024-03-08T14:12:49;9.60;99.90
16846;DHT22;8539;53.188;8.696;2024-03-08T14:15:17;9.70;99.90
16846;DHT22;8539;53.188;8.696;2024-03-08T14:17:45;9.90;99.90
16846;DHT22;8539;53.188;8.696;2024-03-08T14:20:14;9.90;99.90
16846;DHT22;8539;53.188;8.696;2024-03-08T14:22:41;9.90;99.90
16846;DHT22;8539;53.188;8.696;2024-03-08T14:25:08;10.00;99.90
16846;DHT22;8539;53.188;8.696;2024-03-08T14:27:46;10.00;99.90
16846;DHT22;8539;53.188;8.696;2024-03-08T14:30:13;9.90;99.90
16846;DHT22;8539;53.188;8.696;2024-03-08T14:32:44;9.90;99.90
16846;DHT22;8539;53.188;8.696;2024-03-08T14:35:14;9.70;99.90
16846;DHT22;8539;53.188;8.696;2024-03-08T14:37:44;9.60;99.90
16846;DHT22;8539;53.188;8.696;2024-03-08T14:40:11;9.60;99.90
16846;DHT22;8539;53.188;8.696;2024-03-08T14:42:42;9.50;99.90
16846;DHT22;8539;53.188;8.696;2024-03-08T14:45:09;9.50;99.90
16846;DHT22;8539;53.188;8.696;2024-03-08T14:47:36;9.50;99.90
16846;DHT22;8539;53.188;8.696;2024-03-08T14:50:05;9.50;99.90
16846;DHT22;8539;53.188;8.696;2024-03-08T14:52:35;9.40;99.90
16846;DHT22;8539;53.188;8.696;2024-03-08T14:55:02;9.50;99.90
16846;DHT22;8539;53.188;8.696;2024-03-08T14:57:30;9.40;99.90
16846;DHT22;8539;53.188;8.696;2024-03-08T14:59:59;9.40;99.90
16846;DHT22;8539;53.188;8.696;2024-03-08T15:02:34;9.40;99.90
16846;DHT22;8539;53.188;8.696;2024-03-08T15:05:03;9.40;99.90
16846;DHT22;8539;53.188;8.696;2024-03-08T15:07:35;9.30;99.90
16846;DHT22;8539;53.188;8.696;2024-03-08T15:10:02;9.30;99.90
16846;DHT22;8539;53.188;8.696;2024-03-08T15:12:38;9.30;99.90
16846;DHT22;8539;53.188;8.696;2024-03-08T15:15:07;9.30;99.90
16846;DHT22;8539;53.188;8.696;2024-03-08T15:17:35;9.30;99.90
16846;DHT22;8539;53.188;8.696;2024-03-08T15:20:03;9.30;99.90
16846;DHT22;8539;53.188;8.696;2024-03-08T15:22:31;9.10;99.90
16846;DHT22;8539;53.188;8.696;2024-03-08T15:24:58;9.00;99.90
16846;DHT22;8539;53.188;8.696;2024-03-08T15:27:25;8.90;99.90
16846;DHT22;8539;53.188;8.696;2024-03-08T15:29:52;8.90;99.90
16846;DHT22;8539;53.188;8.696;2024-03-08T15:32:22;8.90;99.90
16846;DHT22;8539;53.188;8.696;2024-03-08T15:34:49;9.00;99.90
16846;DHT22;8539;53.188;8.696;2024-03-08T15:37:17;8.90;99.90
16846;DHT22;8539;53.188;8.696;2024-03-08T15:39:44;8.90;99.90
16846;DHT22;8539;53.188;8.696;2024-03-08T15:42:12;8.90;99.90
16846;DHT22;8539;53.188;8.696;2024-03-08T15:44:39;8.90;99.90
16846;DHT22;8539;53.188;8.696;2024-03-08T15:47:08;8.80;99.90
16846;DHT22;8539;53.188;8.696;2024-03-08T15:49:37;8.70;99.90
16846;DHT22;8539;53.188;8.696;2024-03-08T15:52:05;8.70;99.90
16846;DHT22;8539;53.188;8.696;2024-03-08T15:54:33;8.70;99.90
16846;DHT22;8539;53.188;8.696;2024-03-08T15:57:00;8.70;99.90
16846;DHT22;8539;53.188;8.696;2024-03-08T15:59:27;8.70;99.90
16846;DHT22;8539;53.188;8.696;2024-03-08T16:01:56;8.60;99.90
16846;DHT22;8539;53.188;8.696;2024-03-08T16:04:24;8.60;99.90
16846;DHT22;8539;53.188;8.696;2024-03-08T16:06:53;8.50;99.90
16846;DHT22;8539;53.188;8.696;2024-03-08T16:09:21;8.50;99.90